sensor_id;sensor_type;location;lat;lon;timestamp;pressure;altitude;pressure_sealevel;temperature;humidity
16481;BME280;44634;54.110;12.138;2023-01-30T00:01:44;100293.34;;;5.77;100.00
16481;BME280;44634;54.110;12.138;2023-01-30T00:04:12;100275.16;;;5.97;100.00
16481;BME280;44634;54.110;12.138;2023-01-30T00:06:43;100259.06;;;6.02;100.00
16481;BME280;44634;54.110;12.138;2023-01-30T00:09:12;100267.88;;;6.01;100.00
16481;BME280;44634;54.110;12.138;2023-01-30T00:11:42;100258.31;;;5.66;100.00
16481;BME280;44634;54.110;12.138;2023-01-30T00:14:09;100322.94;;;5.79;100.00
16481;BME280;44634;54.110;12.138;2023-01-30T00:16:37;100234.72;;;6.00;100.00
16481;BME280;44634;54.110;12.138;2023-01-30T00:19:05;100253.47;;;5.95;100.00
16481;BME280;44634;54.110;12.138;2023-01-30T00:21:33;100231.03;;;5.91;100.00
16481;BME280;44634;54.110;12.138;2023-01-30T00:24:00;100208.00;;;6.06;100.00
16481;BME280;44634;54.110;12.138;2023-01-30T00:26:28;100209.19;;;5.91;100.00
16481;BME280;44634;54.110;12.138;2023-01-30T00:28:57;100180.78;;;6.07;100.00
16481;BME280;44634;54.110;12.138;2023-01-30T00:31:25;100182.22;;;6.11;100.00
16481;BME280;44634;54.110;12.138;2023-01-30T00:33:53;100195.72;;;5.84;100.00
16481;BME280;44634;54.110;12.138;2023-01-30T00:36:20;100201.31;;;5.91;100.00
16481;BME280;44634;54.110;12.138;2023-01-30T00:38:48;100175.44;;;5.75;100.00
16481;BME280;44634;54.110;12.138;2023-01-30T00:41:16;100181.75;;;6.06;100.00
16481;BME280;44634;54.110;12.138;2023-01-30T00:43:44;100162.09;;;6.01;100.00
16481;BME280;44634;54.110;12.138;2023-01-30T00:46:32;100118.56;;;5.76;100.00
16481;BME280;44634;54.110;12.138;2023-01-30T00:49:18;100124.25;;;6.03;100.00
16481;BME280;44634;54.110;12.138;2023-01-30T00:51:46;100112.47;;;6.09;100.00
16481;BME280;44634;54.110;12.138;2023-01-30T00:54:15;100097.81;;;5.95;100.00
16481;BME280;44634;54.110;12.138;2023-01-30T00:56:42;100081.38;;;6.25;100.00
16481;BME280;44634;54.110;12.138;2023-01-30T00:59:10;100057.44;;;6.07;100.00
16481;BME280;44634;54.110;12.138;2023-01-30T01:01:39;100053.28;;;6.37;100.00
16481;BME280;44634;54.110;12.138;2023-01-30T01:04:08;100072.16;;;5.87;100.00
16481;BME280;44634;54.110;12.138;2023-01-30T01:06:37;100050.03;;;6.12;100.00
16481;BME280;44634;54.110;12.138;2023-01-30T01:09:06;100058.50;;;6.16;100.00
16481;BME280;44634;54.110;12.138;2023-01-30T01:11:34;100058.44;;;6.27;100.00
16481;BME280;44634;54.110;12.138;2023-01-30T01:14:03;100086.44;;;6.06;100.00
16481;BME280;44634;54.110;12.138;2023-01-30T01:16:31;100046.28;;;6.47;100.00
16481;BME280;44634;54.110;12.138;2023-01-30T01:19:01;100070.28;;;6.21;100.00
16481;BME280;44634;54.110;12.138;2023-01-30T01:21:29;100021.06;;;6.55;100.00
16481;BME280;44634;54.110;12.138;2023-01-30T01:23:58;100017.97;;;6.30;100.00
16481;BME280;44634;54.110;12.138;2023-01-30T01:26:26;100020.59;;;6.30;100.00
16481;BME280;44634;54.110;12.138;2023-01-30T01:28:55;100015.09;;;6.33;100.00
16481;BME280;44634;54.110;12.138;2023-01-30T01:31:23;100019.47;;;6.43;100.00
16481;BME280;44634;54.110;12.138;2023-01-30T01:33:51;100020.34;;;6.53;100.00
16481;BME280;44634;54.110;12.138;2023-01-30T01:36:21;100010.88;;;6.41;100.00
16481;BME280;44634;54.110;12.138;2023-01-30T01:39:09;99997.25;;;6.78;100.00
16481;BME280;44634;54.110;12.138;2023-01-30T01:41:36;100000.88;;;6.35;100.00
16481;BME280;44634;54.110;12.138;2023-01-30T01:44:05;100008.66;;;6.37;100.00
16481;BME280;44634;54.110;12.138;2023-01-30T01:46:35;100010.22;;;6.49;100.00
16481;BME280;44634;54.110;12.138;2023-01-30T01:49:07;100038.75;;;6.53;100.00
16481;BME280;44634;54.110;12.138;2023-01-30T01:51:44;100201.78;;;6.18;100.00
16481;BME280;44634;54.110;12.138;2023-01-30T01:54:16;100292.25;;;6.69;100.00
16481;BME280;44634;54.110;12.138;2023-01-30T01:56:46;100237.22;;;6.02;100.00
16481;BME280;44634;54.110;12.138;2023-01-30T01:59:21;100216.63;;;6.51;100.00
16481;BME280;44634;54.110;12.138;2023-01-30T02:01:55;100202.72;;;6.29;100.00
16481;BME280;44634;54.110;12.138;2023-01-30T02:04:26;100205.44;;;6.38;100.00
16481;BME280;44634;54.110;12.138;2023-01-30T02:07:09;100206.75;;;6.65;100.00
16481;BME280;44634;54.110;12.138;2023-01-30T02:09:37;100192.66;;;6.34;100.00
16481;BME280;44634;54.110;12.138;2023-01-30T02:12:05;100161.16;;;6.34;100.00
16481;BME280;44634;54.110;12.138;2023-01-30T02:14:34;100161.19;;;6.66;100.00
16481;BME280;44634;54.110;12.138;2023-01-30T02:17:03;100154.03;;;6.56;100.00
16481;BME280;44634;54.110;12.138;2023-01-30T02:19:36;100155.41;;;6.72;100.00
16481;BME280;44634;54.110;12.138;2023-01-30T02:22:33;100150.72;;;6.75;100.00
16481;BME280;44634;54.110;12.138;2023-01-30T02:25:20;100166.75;;;6.72;100.00
16481;BME280;44634;54.110;12.138;2023-01-30T02:28:34;100171.75;;;6.75;100.00
16481;BME280;44634;54.110;12.138;2023-01-30T02:31:22;100173.56;;;6.64;100.00
16481;BME280;44634;54.110;12.138;2023-01-30T02:33:59;100161.03;;;6.67;100.00
16481;BME280;44634;54.110;12.138;2023-01-30T02:36:40;100170.47;;;6.38;100.00
16481;BME280;44634;54.110;12.138;2023-01-30T02:39:19;100181.88;;;6.80;100.00
16481;BME280;44634;54.110;12.138;2023-01-30T02:42:04;100154.03;;;6.56;100.00
16481;BME280;44634;54.110;12.138;2023-01-30T02:44:44;100164.13;;;6.72;100.00
16481;BME280;44634;54.110;12.138;2023-01-30T02:47:17;100154.31;;;6.53;100.00
16481;BME280;44634;54.110;12.138;2023-01-30T02:49:48;100171.44;;;6.37;100.00
16481;BME280;44634;54.110;12.138;2023-01-30T02:52:20;100179.91;;;6.61;100.00
16481;BME280;44634;54.110;12.138;2023-01-30T02:54:48;100170.41;;;6.49;100.00
16481;BME280;44634;54.110;12.138;2023-01-30T02:57:18;100156.53;;;6.58;100.00
16481;BME280;44634;54.110;12.138;2023-01-30T02:59:49;100170.47;;;6.70;100.00
16481;BME280;44634;54.110;12.138;2023-01-30T03:02:31;100156.44;;;6.80;100.00
16481;BME280;44634;54.110;12.138;2023-01-30T03:05:18;100157.81;;;6.64;100.00
16481;BME280;44634;54.110;12.138;2023-01-30T03:07:54;100152.66;;;6.73;100.00
16481;BME280;44634;54.110;12.138;2023-01-30T03:10:36;100151.81;;;6.73;100.00
16481;BME280;44634;54.110;12.138;2023-01-30T03:13:10;100153.28;;;6.66;100.00
16481;BME280;44634;54.110;12.138;2023-01-30T03:15:45;100124.00;;;7.12;100.00
16481;BME280;44634;54.110;12.138;2023-01-30T03:18:18;100138.13;;;7.21;100.00
16481;BME280;44634;54.110;12.138;2023-01-30T03:20:47;100101.38;;;7.00;100.00
16481;BME280;44634;54.110;12.138;2023-01-30T03:23:15;100119.97;;;6.87;100.00
16481;BME280;44634;54.110;12.138;2023-01-30T03:25:44;100135.44;;;6.80;100.00
16481;BME280;44634;54.110;12.138;2023-01-30T03:28:13;100139.63;;;7.13;100.00
16481;BME280;44634;54.110;12.138;2023-01-30T03:30:43;100150.13;;;6.93;100.00
16481;BME280;44634;54.110;12.138;2023-01-30T03:33:10;100164.25;;;6.71;100.00
16481;BME280;44634;54.110;12.138;2023-01-30T03:35:40;100167.00;;;6.69;100.00
16481;BME280;44634;54.110;12.138;2023-01-30T03:38:08;100134.00;;;6.76;100.00
16481;BME280;44634;54.110;12.138;2023-01-30T03:40:36;100181.63;;;6.83;100.00
16481;BME280;44634;54.110;12.138;2023-01-30T03:43:04;100133.03;;;6.77;100.00
16481;BME280;44634;54.110;12.138;2023-01-30T03:45:33;100138.88;;;6.81;100.00
16481;BME280;44634;54.110;12.138;2023-01-30T03:48:01;100135.94;;;6.95;100.00
16481;BME280;44634;54.110;12.138;2023-01-30T03:50:28;100160.13;;;6.78;100.00
16481;BME280;44634;54.110;12.138;2023-01-30T03:52:58;100126.84;;;7.30;100.00
16481;BME280;44634;54.110;12.138;2023-01-30T03:55:25;100139.72;;;6.81;100.00
16481;BME280;44634;54.110;12.138;2023-01-30T03:57:54;100146.47;;;7.26;100.00
16481;BME280;44634;54.110;12.138;2023-01-30T04:00:22;100141.44;;;6.92;100.00
16481;BME280;44634;54.110;12.138;2023-01-30T04:02:50;100149.13;;;7.05;100.00
16481;BME280;44634;54.110;12.138;2023-01-30T04:05:20;100159.47;;;6.97;100.00
16481;BME280;44634;54.110;12.138;2023-01-30T04:07:48;100168.97;;;7.19;100.00
16481;BME280;44634;54.110;12.138;2023-01-30T04:10:18;100148.53;;;7.22;100.00
16481;BME280;44634;54.110;12.138;2023-01-30T04:12:46;100163.25;;;7.34;100.00
16481;BME280;44634;54.110;12.138;2023-01-30T04:15:14;100167.78;;;7.02;100.00
16481;BME280;44634;54.110;12.138;2023-01-30T04:17:42;100196.03;;;7.30;100.00
16481;BME280;44634;54.110;12.138;2023-01-30T04:20:10;100195.28;;;7.19;100.00
16481;BME280;44634;54.110;12.138;2023-01-30T04:22:38;100227.78;;;6.97;100.00
16481;BME280;44634;54.110;12.138;2023-01-30T04:25:07;100213.19;;;7.25;100.00
16481;BME280;44634;54.110;12.138;2023-01-30T04:27:36;100200.47;;;7.30;100.00
16481;BME280;44634;54.110;12.138;2023-01-30T04:30:05;100173.50;;;7.98;100.00
16481;BME280;44634;54.110;12.138;2023-01-30T04:32:33;100139.56;;;7.65;100.00
16481;BME280;44634;54.110;12.138;2023-01-30T04:35:01;100121.00;;;7.57;100.00
16481;BME280;44634;54.110;12.138;2023-01-30T04:37:28;100113.84;;;7.78;100.00
16481;BME280;44634;54.110;12.138;2023-01-30T04:39:56;100089.72;;;7.63;100.00
16481;BME280;44634;54.110;12.138;2023-01-30T04:42:24;100060.25;;;7.69;100.00
16481;BME280;44634;54.110;12.138;2023-01-30T04:44:53;100052.53;;;8.06;100.00
16481;BME280;44634;54.110;12.138;2023-01-30T04:47:21;100030.09;;;7.83;100.00
16481;BME280;44634;54.110;12.138;2023-01-30T04:49:49;100037.94;;;7.54;100.00
16481;BME280;44634;54.110;12.138;2023-01-30T04:52:16;100032.72;;;7.93;100.00
16481;BME280;44634;54.110;12.138;2023-01-30T04:54:44;100001.88;;;7.35;100.00
16481;BME280;44634;54.110;12.138;2023-01-30T04:57:12;100036.59;;;7.98;100.00
16481;BME280;44634;54.110;12.138;2023-01-30T04:59:40;100053.41;;;7.38;100.00
16481;BME280;44634;54.110;12.138;2023-01-30T05:02:09;100069.91;;;7.59;100.00
16481;BME280;44634;54.110;12.138;2023-01-30T05:04:37;100064.25;;;7.64;100.00
16481;BME280;44634;54.110;12.138;2023-01-30T05:07:04;100064.78;;;7.58;100.00
16481;BME280;44634;54.110;12.138;2023-01-30T05:09:32;100048.91;;;7.88;100.00
16481;BME280;44634;54.110;12.138;2023-01-30T05:12:00;100037.41;;;7.80;100.00
16481;BME280;44634;54.110;12.138;2023-01-30T05:14:28;100029.47;;;7.60;100.00
16481;BME280;44634;54.110;12.138;2023-01-30T05:16:55;100040.94;;;7.50;100.00
16481;BME280;44634;54.110;12.138;2023-01-30T05:19:24;100041.03;;;7.88;100.00
16481;BME280;44634;54.110;12.138;2023-01-30T05:21:52;100022.16;;;7.64;100.00
16481;BME280;44634;54.110;12.138;2023-01-30T05:24:20;100024.56;;;7.96;100.00
16481;BME280;44634;54.110;12.138;2023-01-30T05:26:48;99995.72;;;8.04;100.00
16481;BME280;44634;54.110;12.138;2023-01-30T05:29:16;99977.03;;;7.97;100.00
16481;BME280;44634;54.110;12.138;2023-01-30T05:31:43;99978.13;;;7.85;100.00
16481;BME280;44634;54.110;12.138;2023-01-30T05:34:11;99974.53;;;8.05;100.00
16481;BME280;44634;54.110;12.138;2023-01-30T05:36:40;99970.63;;;8.10;100.00
16481;BME280;44634;54.110;12.138;2023-01-30T05:39:08;99964.13;;;7.46;100.00
16481;BME280;44634;54.110;12.138;2023-01-30T05:41:36;99968.44;;;7.76;100.00
16481;BME280;44634;54.110;12.138;2023-01-30T05:44:04;99960.25;;;7.60;100.00
16481;BME280;44634;54.110;12.138;2023-01-30T05:46:32;99950.44;;;7.71;100.00
16481;BME280;44634;54.110;12.138;2023-01-30T05:49:00;99931.72;;;7.65;100.00
16481;BME280;44634;54.110;12.138;2023-01-30T05:51:29;99916.91;;;7.64;100.00
16481;BME280;44634;54.110;12.138;2023-01-30T05:53:58;99903.06;;;7.52;100.00
16481;BME280;44634;54.110;12.138;2023-01-30T05:56:26;99912.75;;;7.81;100.00
16481;BME280;44634;54.110;12.138;2023-01-30T05:58:55;99891.44;;;7.64;100.00
16481;BME280;44634;54.110;12.138;2023-01-30T06:01:23;99870.97;;;7.39;100.00
16481;BME280;44634;54.110;12.138;2023-01-30T06:03:51;99856.16;;;7.28;100.00
16481;BME280;44634;54.110;12.138;2023-01-30T06:06:20;99849.63;;;7.23;100.00
16481;BME280;44634;54.110;12.138;2023-01-30T06:08:52;99833.31;;;7.19;100.00
16481;BME280;44634;54.110;12.138;2023-01-30T06:11:22;99804.41;;;7.29;100.00
16481;BME280;44634;54.110;12.138;2023-01-30T06:13:50;99785.22;;;7.65;100.00
16481;BME280;44634;54.110;12.138;2023-01-30T06:16:18;99750.66;;;7.51;100.00
16481;BME280;44634;54.110;12.138;2023-01-30T06:18:46;99755.13;;;7.31;100.00
16481;BME280;44634;54.110;12.138;2023-01-30T06:21:14;99740.13;;;7.51;100.00
16481;BME280;44634;54.110;12.138;2023-01-30T06:23:42;99729.66;;;7.41;100.00
16481;BME280;44634;54.110;12.138;2023-01-30T06:26:10;99734.91;;;7.41;100.00
16481;BME280;44634;54.110;12.138;2023-01-30T06:28:39;99746.56;;;7.19;100.00
16481;BME280;44634;54.110;12.138;2023-01-30T06:31:08;99744.59;;;7.31;100.00
16481;BME280;44634;54.110;12.138;2023-01-30T06:33:36;99742.22;;;7.37;100.00
16481;BME280;44634;54.110;12.138;2023-01-30T06:36:04;99759.59;;;7.11;100.00
16481;BME280;44634;54.110;12.138;2023-01-30T06:38:32;99755.38;;;7.37;100.00
16481;BME280;44634;54.110;12.138;2023-01-30T06:40:59;99763.41;;;7.45;100.00
16481;BME280;44634;54.110;12.138;2023-01-30T06:43:27;99761.16;;;7.60;100.00
16481;BME280;44634;54.110;12.138;2023-01-30T06:45:58;99742.13;;;7.39;100.00
16481;BME280;44634;54.110;12.138;2023-01-30T06:48:26;99750.28;;;7.26;100.00
16481;BME280;44634;54.110;12.138;2023-01-30T06:50:54;99782.66;;;7.17;100.00
16481;BME280;44634;54.110;12.138;2023-01-30T06:53:22;99785.97;;;6.90;100.00
16481;BME280;44634;54.110;12.138;2023-01-30T06:55:55;99780.59;;;7.21;100.00
16481;BME280;44634;54.110;12.138;2023-01-30T06:58:24;99793.19;;;7.17;100.00
16481;BME280;44634;54.110;12.138;2023-01-30T07:00:52;99793.72;;;7.21;100.00
16481;BME280;44634;54.110;12.138;2023-01-30T07:03:21;99813.78;;;7.22;100.00
16481;BME280;44634;54.110;12.138;2023-01-30T07:05:49;99791.78;;;7.32;100.00
16481;BME280;44634;54.110;12.138;2023-01-30T07:08:17;99787.09;;;7.26;100.00
16481;BME280;44634;54.110;12.138;2023-01-30T07:10:45;99778.06;;;7.48;100.00
16481;BME280;44634;54.110;12.138;2023-01-30T07:13:13;99776.00;;;7.23;100.00
16481;BME280;44634;54.110;12.138;2023-01-30T07:15:41;99801.78;;;7.09;100.00
16481;BME280;44634;54.110;12.138;2023-01-30T07:18:09;99803.69;;;6.88;100.00
16481;BME280;44634;54.110;12.138;2023-01-30T07:20:38;99830.31;;;6.64;100.00
16481;BME280;44634;54.110;12.138;2023-01-30T07:23:07;99817.72;;;6.58;100.00
16481;BME280;44634;54.110;12.138;2023-01-30T07:25:35;99812.91;;;6.63;100.00
16481;BME280;44634;54.110;12.138;2023-01-30T07:28:03;99807.69;;;6.33;100.00
16481;BME280;44634;54.110;12.138;2023-01-30T07:30:32;99807.06;;;6.50;100.00
16481;BME280;44634;54.110;12.138;2023-01-30T07:33:03;99840.88;;;6.34;100.00
16481;BME280;44634;54.110;12.138;2023-01-30T07:35:34;99846.91;;;6.24;100.00
16481;BME280;44634;54.110;12.138;2023-01-30T07:38:04;99872.81;;;6.08;100.00
16481;BME280;44634;54.110;12.138;2023-01-30T07:40:32;99862.41;;;6.28;100.00
16481;BME280;44634;54.110;12.138;2023-01-30T07:43:01;99833.06;;;6.53;100.00
16481;BME280;44634;54.110;12.138;2023-01-30T07:45:34;99846.22;;;6.22;100.00
16481;BME280;44634;54.110;12.138;2023-01-30T07:48:02;99848.41;;;6.17;100.00
16481;BME280;44634;54.110;12.138;2023-01-30T07:50:30;99848.59;;;5.84;100.00
16481;BME280;44634;54.110;12.138;2023-01-30T07:52:58;99826.66;;;6.06;100.00
16481;BME280;44634;54.110;12.138;2023-01-30T07:55:30;99833.44;;;5.87;100.00
16481;BME280;44634;54.110;12.138;2023-01-30T07:57:58;99850.13;;;6.07;100.00
16481;BME280;44634;54.110;12.138;2023-01-30T08:00:25;99847.84;;;5.93;100.00
16481;BME280;44634;54.110;12.138;2023-01-30T08:02:53;99844.31;;;6.04;100.00
16481;BME280;44634;54.110;12.138;2023-01-30T08:05:21;99833.88;;;6.44;100.00
16481;BME280;44634;54.110;12.138;2023-01-30T08:07:49;99832.63;;;6.48;100.00
16481;BME280;44634;54.110;12.138;2023-01-30T08:10:17;99802.31;;;7.03;100.00
16481;BME280;44634;54.110;12.138;2023-01-30T08:12:48;99781.53;;;6.71;100.00
16481;BME280;44634;54.110;12.138;2023-01-30T08:15:16;99777.94;;;6.63;100.00
16481;BME280;44634;54.110;12.138;2023-01-30T08:17:52;99750.13;;;7.47;100.00
16481;BME280;44634;54.110;12.138;2023-01-30T08:20:20;99723.28;;;7.81;100.00
16481;BME280;44634;54.110;12.138;2023-01-30T08:22:48;99710.34;;;7.60;100.00
16481;BME280;44634;54.110;12.138;2023-01-30T08:25:16;99722.94;;;6.80;100.00
16481;BME280;44634;54.110;12.138;2023-01-30T08:27:43;99739.75;;;6.49;100.00
16481;BME280;44634;54.110;12.138;2023-01-30T08:30:13;99771.03;;;6.91;100.00
16481;BME280;44634;54.110;12.138;2023-01-30T08:32:41;99771.47;;;6.86;100.00
16481;BME280;44634;54.110;12.138;2023-01-30T08:35:09;99774.91;;;7.06;100.00
16481;BME280;44634;54.110;12.138;2023-01-30T08:37:38;99788.34;;;7.03;100.00
16481;BME280;44634;54.110;12.138;2023-01-30T08:40:07;99790.84;;;7.14;100.00
16481;BME280;44634;54.110;12.138;2023-01-30T08:42:35;99788.75;;;7.27;100.00
16481;BME280;44634;54.110;12.138;2023-01-30T08:45:03;99790.66;;;6.77;100.00
16481;BME280;44634;54.110;12.138;2023-01-30T08:47:32;99907.31;;;6.65;100.00
16481;BME280;44634;54.110;12.138;2023-01-30T08:50:01;99895.38;;;5.47;100.00
16481;BME280;44634;54.110;12.138;2023-01-30T08:52:28;99883.41;;;5.33;100.00
16481;BME280;44634;54.110;12.138;2023-01-30T08:54:56;99907.41;;;5.06;100.00
16481;BME280;44634;54.110;12.138;2023-01-30T08:57:24;99900.31;;;4.97;100.00
16481;BME280;44634;54.110;12.138;2023-01-30T08:59:52;99862.28;;;4.48;100.00
16481;BME280;44634;54.110;12.138;2023-01-30T09:02:19;99904.75;;;4.63;100.00
16481;BME280;44634;54.110;12.138;2023-01-30T09:04:49;99963.44;;;4.49;100.00
16481;BME280;44634;54.110;12.138;2023-01-30T09:07:16;99984.00;;;4.42;100.00
16481;BME280;44634;54.110;12.138;2023-01-30T09:09:45;99996.84;;;4.34;100.00
16481;BME280;44634;54.110;12.138;2023-01-30T09:12:14;99997.13;;;4.65;100.00
16481;BME280;44634;54.110;12.138;2023-01-30T09:14:41;100005.09;;;4.86;100.00
16481;BME280;44634;54.110;12.138;2023-01-30T09:17:09;99989.97;;;5.23;100.00
16481;BME280;44634;54.110;12.138;2023-01-30T09:19:37;99970.13;;;5.41;100.00
16481;BME280;44634;54.110;12.138;2023-01-30T09:22:07;99957.72;;;5.43;100.00
16481;BME280;44634;54.110;12.138;2023-01-30T09:24:35;99959.75;;;5.83;100.00
16481;BME280;44634;54.110;12.138;2023-01-30T09:27:03;99992.31;;;5.80;100.00
16481;BME280;44634;54.110;12.138;2023-01-30T09:29:31;100042.97;;;5.15;100.00
16481;BME280;44634;54.110;12.138;2023-01-30T09:31:58;100061.31;;;4.93;100.00
16481;BME280;44634;54.110;12.138;2023-01-30T09:34:26;100083.44;;;4.42;100.00
16481;BME280;44634;54.110;12.138;2023-01-30T09:36:55;100079.22;;;3.94;100.00
16481;BME280;44634;54.110;12.138;2023-01-30T09:39:24;100094.50;;;4.11;100.00
16481;BME280;44634;54.110;12.138;2023-01-30T09:42:06;100073.47;;;4.12;100.00
16481;BME280;44634;54.110;12.138;2023-01-30T09:44:58;100048.19;;;4.70;100.00
16481;BME280;44634;54.110;12.138;2023-01-30T09:47:37;100045.81;;;5.23;100.00
16481;BME280;44634;54.110;12.138;2023-01-30T09:50:19;100009.59;;;5.17;100.00
16481;BME280;44634;54.110;12.138;2023-01-30T09:52:55;99994.13;;;5.25;100.00
16481;BME280;44634;54.110;12.138;2023-01-30T09:55:30;100010.31;;;5.30;100.00
16481;BME280;44634;54.110;12.138;2023-01-30T09:58:00;99990.09;;;5.64;100.00
16481;BME280;44634;54.110;12.138;2023-01-30T10:00:32;99964.38;;;5.90;100.00
16481;BME280;44634;54.110;12.138;2023-01-30T10:03:05;99951.22;;;5.70;100.00
16481;BME280;44634;54.110;12.138;2023-01-30T10:05:41;99931.88;;;6.23;100.00
16481;BME280;44634;54.110;12.138;2023-01-30T10:08:29;99920.97;;;6.28;100.00
16481;BME280;44634;54.110;12.138;2023-01-30T10:11:08;99901.84;;;6.16;100.00
16481;BME280;44634;54.110;12.138;2023-01-30T10:14:02;99878.75;;;6.10;100.00
16481;BME280;44634;54.110;12.138;2023-01-30T10:16:36;99841.63;;;7.43;100.00
16481;BME280;44634;54.110;12.138;2023-01-30T10:19:38;99778.97;;;7.86;100.00
16481;BME280;44634;54.110;12.138;2023-01-30T10:22:20;99684.75;;;8.44;100.00
16481;BME280;44634;54.110;12.138;2023-01-30T10:25:00;99631.34;;;8.78;100.00
16481;BME280;44634;54.110;12.138;2023-01-30T10:27:34;99581.47;;;9.87;100.00
16481;BME280;44634;54.110;12.138;2023-01-30T10:30:05;99580.63;;;9.70;100.00
16481;BME280;44634;54.110;12.138;2023-01-30T10:32:39;99576.31;;;9.77;100.00
16481;BME280;44634;54.110;12.138;2023-01-30T10:35:15;99580.56;;;9.62;100.00
16481;BME280;44634;54.110;12.138;2023-01-30T10:37:49;99860.41;;;10.22;100.00
16481;BME280;44634;54.110;12.138;2023-01-30T10:40:23;99814.00;;;10.19;100.00
16481;BME280;44634;54.110;12.138;2023-01-30T10:43:00;99827.84;;;9.43;100.00
16481;BME280;44634;54.110;12.138;2023-01-30T10:45:35;99847.66;;;10.43;100.00
16481;BME280;44634;54.110;12.138;2023-01-30T10:48:17;99826.56;;;9.47;100.00
16481;BME280;44634;54.110;12.138;2023-01-30T10:51:17;99749.13;;;9.13;100.00
16481;BME280;44634;54.110;12.138;2023-01-30T10:53:52;99764.09;;;10.42;100.00
16481;BME280;44634;54.110;12.138;2023-01-30T10:56:31;99813.59;;;10.06;100.00
16481;BME280;44634;54.110;12.138;2023-01-30T10:59:10;99830.00;;;10.52;100.00
16481;BME280;44634;54.110;12.138;2023-01-30T11:01:43;99842.94;;;11.21;100.00
16481;BME280;44634;54.110;12.138;2023-01-30T11:04:18;99872.59;;;10.14;100.00
16481;BME280;44634;54.110;12.138;2023-01-30T11:06:51;99850.69;;;9.17;100.00
16481;BME280;44634;54.110;12.138;2023-01-30T11:09:20;99791.53;;;9.63;100.00
16481;BME280;44634;54.110;12.138;2023-01-30T11:11:51;99845.63;;;10.71;100.00
16481;BME280;44634;54.110;12.138;2023-01-30T11:14:21;99812.00;;;9.25;100.00
16481;BME280;44634;54.110;12.138;2023-01-30T11:16:50;99754.56;;;9.11;100.00
16481;BME280;44634;54.110;12.138;2023-01-30T11:19:23;99747.81;;;8.81;100.00
16481;BME280;44634;54.110;12.138;2023-01-30T11:21:54;99721.00;;;8.23;100.00
16481;BME280;44634;54.110;12.138;2023-01-30T11:24:28;99710.38;;;7.87;100.00
16481;BME280;44634;54.110;12.138;2023-01-30T11:27:08;99637.63;;;8.41;100.00
16481;BME280;44634;54.110;12.138;2023-01-30T11:29:38;99653.59;;;8.12;100.00
16481;BME280;44634;54.110;12.138;2023-01-30T11:32:11;99618.31;;;8.23;100.00
16481;BME280;44634;54.110;12.138;2023-01-30T11:34:42;99597.50;;;8.47;100.00
16481;BME280;44634;54.110;12.138;2023-01-30T11:37:17;99656.41;;;7.83;100.00
16481;BME280;44634;54.110;12.138;2023-01-30T11:39:51;99573.19;;;8.18;100.00
16481;BME280;44634;54.110;12.138;2023-01-30T11:42:23;99583.75;;;8.35;100.00
16481;BME280;44634;54.110;12.138;2023-01-30T11:44:57;99561.97;;;7.98;100.00
16481;BME280;44634;54.110;12.138;2023-01-30T11:47:48;99570.56;;;8.18;100.00
16481;BME280;44634;54.110;12.138;2023-01-30T11:50:28;99561.50;;;7.85;100.00
16481;BME280;44634;54.110;12.138;2023-01-30T11:53:15;99570.25;;;7.58;100.00
16481;BME280;44634;54.110;12.138;2023-01-30T11:55:45;99545.13;;;7.91;100.00
16481;BME280;44634;54.110;12.138;2023-01-30T11:58:30;99556.56;;;8.17;100.00
16481;BME280;44634;54.110;12.138;2023-01-30T12:01:01;99597.84;;;7.99;100.00
16481;BME280;44634;54.110;12.138;2023-01-30T12:03:30;99611.53;;;8.20;100.00
16481;BME280;44634;54.110;12.138;2023-01-30T12:06:00;99633.94;;;8.34;100.00
16481;BME280;44634;54.110;12.138;2023-01-30T12:08:34;99644.25;;;8.45;100.00
16481;BME280;44634;54.110;12.138;2023-01-30T12:11:30;99660.84;;;7.45;100.00
16481;BME280;44634;54.110;12.138;2023-01-30T12:14:12;99627.84;;;8.06;100.00
16481;BME280;44634;54.110;12.138;2023-01-30T12:16:52;99656.13;;;8.04;100.00
16481;BME280;44634;54.110;12.138;2023-01-30T12:19:32;99652.28;;;7.98;100.00
16481;BME280;44634;54.110;12.138;2023-01-30T12:22:10;99674.06;;;8.46;100.00
16481;BME280;44634;54.110;12.138;2023-01-30T12:24:47;99672.53;;;7.70;100.00
16481;BME280;44634;54.110;12.138;2023-01-30T12:27:21;99653.50;;;8.04;100.00
16481;BME280;44634;54.110;12.138;2023-01-30T12:29:58;99664.34;;;8.19;100.00
16481;BME280;44634;54.110;12.138;2023-01-30T12:32:30;99642.03;;;7.95;100.00
16481;BME280;44634;54.110;12.138;2023-01-30T12:34:59;99636.88;;;8.49;100.00
16481;BME280;44634;54.110;12.138;2023-01-30T12:37:37;99647.47;;;7.94;100.00
16481;BME280;44634;54.110;12.138;2023-01-30T12:40:18;99655.00;;;7.52;100.00
16481;BME280;44634;54.110;12.138;2023-01-30T12:43:05;99651.88;;;7.93;100.00
16481;BME280;44634;54.110;12.138;2023-01-30T12:45:44;99628.91;;;7.68;100.00
16481;BME280;44634;54.110;12.138;2023-01-30T12:48:29;99651.28;;;7.82;100.00
16481;BME280;44634;54.110;12.138;2023-01-30T12:51:21;99643.13;;;8.02;100.00
16481;BME280;44634;54.110;12.138;2023-01-30T12:54:04;99652.38;;;8.34;100.00
16481;BME280;44634;54.110;12.138;2023-01-30T12:56:49;99690.06;;;9.32;100.00
16481;BME280;44634;54.110;12.138;2023-01-30T12:59:25;99747.91;;;9.77;100.00
16481;BME280;44634;54.110;12.138;2023-01-30T13:02:13;99799.28;;;10.42;100.00
16481;BME280;44634;54.110;12.138;2023-01-30T13:04:59;99811.38;;;9.49;100.00
16481;BME280;44634;54.110;12.138;2023-01-30T13:07:39;99812.44;;;9.39;100.00
16481;BME280;44634;54.110;12.138;2023-01-30T13:10:15;99799.50;;;9.97;100.00